createdAt,value
2022-11-04T00:01:24.493Z,1.30
2022-11-04T00:03:52.884Z,1.38
2022-11-04T00:06:27.031Z,1.40
2022-11-04T00:08:55.973Z,1.30
2022-11-04T00:11:49.068Z,1.50
2022-11-04T00:14:23.078Z,1.30
2022-11-04T00:17:08.411Z,1.40
2022-11-04T00:20:00.042Z,1.20
2022-11-04T00:22:45.554Z,1.00
2022-11-04T00:25:38.178Z,1.42
2022-11-04T00:28:35.417Z,1.40
2022-11-04T00:31:31.062Z,1.17
2022-11-04T00:34:06.089Z,1.15
2022-11-04T00:36:39.072Z,1.05
2022-11-04T00:39:05.871Z,1.17
2022-11-04T00:41:39.096Z,1.77
2022-11-04T00:44:05.902Z,1.65
2022-11-04T00:46:40.114Z,1.55
2022-11-04T00:49:06.954Z,2.20
2022-11-04T00:51:40.154Z,2.47
2022-11-04T00:54:07.127Z,1.95
2022-11-04T00:56:47.137Z,2.10
2022-11-04T00:59:21.083Z,1.70
2022-11-04T01:01:50.115Z,1.38
2022-11-04T01:04:25.092Z,1.27
2022-11-04T01:06:58.178Z,1.40
2022-11-04T01:09:25.007Z,1.30
2022-11-04T01:12:05.194Z,1.10
2022-11-04T01:14:38.146Z,1.45
2022-11-04T01:17:10.754Z,1.70
2022-11-04T01:19:44.170Z,1.05
2022-11-04T01:22:12.201Z,1.35
2022-11-04T01:24:45.155Z,1.25
2022-11-04T01:27:32.195Z,1.10
2022-11-04T01:29:58.989Z,0.98
2022-11-04T01:32:34.156Z,0.80
2022-11-04T01:35:00.963Z,0.90
2022-11-04T01:37:41.149Z,0.60
2022-11-04T01:40:21.205Z,0.60
2022-11-04T01:42:54.197Z,0.70
2022-11-04T01:45:29.182Z,0.70
2022-11-04T01:48:16.178Z,0.93
2022-11-04T01:50:43.057Z,0.70
2022-11-04T01:53:22.201Z,0.70
2022-11-04T01:56:02.198Z,0.57
2022-11-04T01:58:41.229Z,0.43
2022-11-04T02:01:18.311Z,0.60
2022-11-04T02:04:19.364Z,0.45
2022-11-04T02:06:55.204Z,0.50
2022-11-04T02:09:29.205Z,0.60
2022-11-04T02:12:25.222Z,0.57
2022-11-04T02:14:53.024Z,0.60
2022-11-04T02:17:26.217Z,0.60
2022-11-04T02:20:13.872Z,0.40
2022-11-04T02:23:13.222Z,0.70
2022-11-04T02:26:18.240Z,0.60
2022-11-04T02:29:07.909Z,0.47
2022-11-04T02:32:03.258Z,0.90
2022-11-04T02:35:04.541Z,1.00
2022-11-04T02:37:57.283Z,0.90
2022-11-04T02:43:17.296Z,1.00
2022-11-04T02:48:44.521Z,1.00
2022-11-04T02:51:39.312Z,1.00
2022-11-04T02:54:41.490Z,1.00
2022-11-04T02:57:22.307Z,0.90
2022-11-04T03:00:08.315Z,0.93
2022-11-04T03:02:40.675Z,1.00
2022-11-04T03:07:47.012Z,1.60
2022-11-04T03:10:34.322Z,1.50
2022-11-04T03:13:11.324Z,1.30
2022-11-04T03:15:41.611Z,1.27
2022-11-04T03:18:44.328Z,1.42
2022-11-04T03:21:13.641Z,1.30
2022-11-04T03:23:40.915Z,2.55
2022-11-04T03:26:36.345Z,1.67
2022-11-04T03:29:16.972Z,1.52
2022-11-04T03:32:12.332Z,1.38
2022-11-04T03:34:39.581Z,1.50
2022-11-04T03:37:13.584Z,1.35
2022-11-04T03:39:40.743Z,1.30
2022-11-04T03:42:26.473Z,1.38
2022-11-04T03:44:57.874Z,1.20
2022-11-04T03:47:33.366Z,1.33
2022-11-04T03:50:07.576Z,2.13
2022-11-04T03:52:42.368Z,1.90
2022-11-04T03:55:10.182Z,2.35
2022-11-04T03:58:09.552Z,2.38
2022-11-04T04:00:51.878Z,2.28
2022-11-04T04:03:48.408Z,2.28
2022-11-04T04:06:31.445Z,3.15
2022-11-04T04:09:20.650Z,2.90
2022-11-04T04:12:00.446Z,5.30
2022-11-04T04:14:49.011Z,5.05
2022-11-04T04:18:05.656Z,4.45
2022-11-04T04:20:37.797Z,3.72
2022-11-04T04:23:38.431Z,4.18
2022-11-04T04:26:40.046Z,4.40
2022-11-04T04:29:14.467Z,6.60
2022-11-04T04:31:50.318Z,7.68
2022-11-04T04:34:35.459Z,6.95
2022-11-04T04:37:29.495Z,5.82
2022-11-04T04:40:23.721Z,6.05
2022-11-04T04:43:17.509Z,5.88
2022-11-04T04:45:50.868Z,6.57
2022-11-04T04:48:24.596Z,6.43
2022-11-04T04:50:56.849Z,5.65
2022-11-04T04:55:56.469Z,7.07
2022-11-04T04:58:23.380Z,6.80
2022-11-04T05:00:50.186Z,6.80
2022-11-04T05:03:33.504Z,7.72
2022-11-04T05:06:01.918Z,7.63
2022-11-04T05:08:35.545Z,8.65
2022-11-04T05:11:02.354Z,8.20
2022-11-04T05:13:38.502Z,8.32
2022-11-04T05:16:07.658Z,7.55
2022-11-04T05:18:42.499Z,7.20
2022-11-04T05:21:20.549Z,8.07
2022-11-04T05:23:53.556Z,6.53
2022-11-04T05:26:27.512Z,6.68
2022-11-04T05:28:54.509Z,7.50
2022-11-04T05:31:23.353Z,8.32
2022-11-04T05:33:56.542Z,7.93
2022-11-04T05:36:29.521Z,9.45
2022-11-04T05:38:56.288Z,8.48
2022-11-04T05:41:32.569Z,8.98
2022-11-04T05:44:08.553Z,8.10
2022-11-04T05:46:35.497Z,8.63
2022-11-04T05:49:08.599Z,8.85
2022-11-04T05:51:41.571Z,8.60
2022-11-04T05:54:09.168Z,8.68
2022-11-04T05:56:42.574Z,8.43
2022-11-04T05:59:09.282Z,7.43
2022-11-04T06:01:45.673Z,8.10
2022-11-04T06:04:17.301Z,8.57
2022-11-04T06:06:51.606Z,8.13
2022-11-04T06:09:18.413Z,8.70
2022-11-04T06:11:45.474Z,9.55
2022-11-04T06:14:19.729Z,8.95
2022-11-04T06:16:46.441Z,8.52
2022-11-04T06:19:15.963Z,7.57
2022-11-04T06:21:49.605Z,7.85
2022-11-04T06:24:16.310Z,8.52
2022-11-04T06:26:49.636Z,8.25
2022-11-04T06:29:16.510Z,7.90
2022-11-04T06:31:49.622Z,7.75
2022-11-04T06:34:19.948Z,7.18
2022-11-04T06:36:48.355Z,6.38
2022-11-04T06:39:21.695Z,7.50
2022-11-04T06:41:56.642Z,6.47
2022-11-04T06:44:32.631Z,7.75
2022-11-04T06:47:23.576Z,6.45
2022-11-04T06:49:57.722Z,6.25
2022-11-04T06:52:30.714Z,5.65
2022-11-04T06:55:03.654Z,6.45
2022-11-04T06:57:37.685Z,6.05
2022-11-04T07:00:11.686Z,6.05
2022-11-04T07:02:45.802Z,6.40
2022-11-04T07:05:13.514Z,5.72
2022-11-04T07:07:40.235Z,5.40
2022-11-04T07:10:13.680Z,5.72
2022-11-04T07:12:40.470Z,4.70
2022-11-04T07:15:14.685Z,4.82
2022-11-04T07:17:47.696Z,4.60
2022-11-04T07:20:27.795Z,5.45
2022-11-04T07:22:56.267Z,4.55
2022-11-04T07:25:29.712Z,5.18
2022-11-04T07:28:10.039Z,4.43
2022-11-04T07:30:36.941Z,4.72
2022-11-04T07:33:10.778Z,4.50
2022-11-04T07:35:37.862Z,5.60
2022-11-04T07:38:11.859Z,5.78
2022-11-04T07:40:39.443Z,4.05
2022-11-04T07:43:15.742Z,4.80
2022-11-04T07:45:42.735Z,5.30
2022-11-04T07:48:15.740Z,4.60
2022-11-04T07:50:42.508Z,3.92
2022-11-04T07:53:10.552Z,5.07
2022-11-04T07:55:45.753Z,5.10
2022-11-04T07:58:13.338Z,6.55
2022-11-04T08:00:40.157Z,4.97
2022-11-04T08:03:14.018Z,5.78
2022-11-04T08:05:47.784Z,6.63
2022-11-04T08:08:27.821Z,6.20
2022-11-04T08:11:06.796Z,6.85
2022-11-04T08:13:36.066Z,6.13
2022-11-04T08:16:19.874Z,6.78
2022-11-04T08:18:48.446Z,7.13
2022-11-04T08:21:22.901Z,6.47
2022-11-04T08:23:51.532Z,5.57
2022-11-04T08:26:26.840Z,5.78
2022-11-04T08:28:53.911Z,7.22
2022-11-04T08:31:31.852Z,7.47
2022-11-04T08:34:04.820Z,7.28
2022-11-04T08:36:43.864Z,7.15
2022-11-04T08:39:11.759Z,6.68
2022-11-04T08:41:47.802Z,6.75
2022-11-04T08:44:15.589Z,7.20
2022-11-04T08:46:44.474Z,6.82
2022-11-04T08:49:21.387Z,6.25
2022-11-04T08:52:01.848Z,6.15
2022-11-04T08:54:34.908Z,6.85
2022-11-04T08:57:08.945Z,7.18
2022-11-04T08:59:36.497Z,7.45
2022-11-04T09:02:09.949Z,6.78
2022-11-04T09:04:36.767Z,6.90
2022-11-04T09:07:08.293Z,5.72
2022-11-04T09:09:41.952Z,6.03
2022-11-04T09:12:16.884Z,4.70
2022-11-04T09:14:43.780Z,6.43
2022-11-04T09:17:16.967Z,6.20
2022-11-04T09:19:43.862Z,6.95
2022-11-04T09:22:11.475Z,8.07
2022-11-04T09:24:44.909Z,7.20
2022-11-04T09:27:26.937Z,6.60
2022-11-04T09:29:53.692Z,8.38
2022-11-04T09:32:48.756Z,8.75
2022-11-04T09:35:26.909Z,7.85
2022-11-04T09:37:54.262Z,6.03
2022-11-04T09:40:30.974Z,5.80
2022-11-04T09:43:29.956Z,5.10
2022-11-04T09:45:58.585Z,5.15
2022-11-04T09:48:36.962Z,5.10
2022-11-04T09:51:12.796Z,7.40
2022-11-04T09:54:07.191Z,6.97
2022-11-04T09:56:51.009Z,5.47
2022-11-04T09:59:25.300Z,9.88
2022-11-04T10:02:03.995Z,9.18
2022-11-04T10:05:14.012Z,8.38
2022-11-04T10:07:40.816Z,6.72
2022-11-04T10:10:37.997Z,8.68
2022-11-04T10:13:15.595Z,7.90
2022-11-04T10:16:17.993Z,8.73
2022-11-04T10:19:16.014Z,8.13
2022-11-04T10:22:14.013Z,8.00
2022-11-04T10:24:54.495Z,7.63
2022-11-04T10:27:39.088Z,7.32
2022-11-04T10:30:23.934Z,6.35
2022-11-04T10:33:05.041Z,6.60
2022-11-04T10:35:49.977Z,5.47
2022-11-04T10:38:31.018Z,4.82
2022-11-04T10:41:07.328Z,5.13
2022-11-04T10:43:40.719Z,5.00
2022-11-04T10:46:38.663Z,5.88
2022-11-04T10:49:26.322Z,6.45
2022-11-04T10:52:05.236Z,5.05
2022-11-04T10:54:47.147Z,4.28
2022-11-04T10:57:33.043Z,7.22
2022-11-04T11:00:10.089Z,5.95
2022-11-04T11:02:44.107Z,5.80
2022-11-04T11:05:27.073Z,5.22
2022-11-04T11:07:56.310Z,4.65
2022-11-04T11:10:39.108Z,5.65
2022-11-04T11:13:23.322Z,7.85
2022-11-04T11:16:33.130Z,6.22
2022-11-04T11:19:23.471Z,4.97
2022-11-04T11:21:52.793Z,4.60
2022-11-04T11:24:34.352Z,4.10
2022-11-04T11:27:18.144Z,2.90
2022-11-04T11:30:00.100Z,3.30
2022-11-04T11:32:42.116Z,5.25
2022-11-04T11:35:24.205Z,5.00
2022-11-04T11:37:51.088Z,6.15
2022-11-04T11:40:47.583Z,7.45
2022-11-04T11:43:28.122Z,6.68
2022-11-04T11:46:04.129Z,7.20
2022-11-04T11:49:00.251Z,6.22
2022-11-04T11:51:37.833Z,5.88
2022-11-04T11:54:29.352Z,6.20
2022-11-04T11:57:13.715Z,5.90
2022-11-04T12:03:01.501Z,5.75
2022-11-04T12:11:51.041Z,4.43
2022-11-04T12:15:02.207Z,4.38
2022-11-04T12:17:47.343Z,5.60
2022-11-04T12:20:35.266Z,5.35
2022-11-04T12:23:23.956Z,4.82
2022-11-04T12:26:35.193Z,6.60
2022-11-04T12:29:39.256Z,6.03
2022-11-04T12:32:30.201Z,6.40
2022-11-04T12:35:29.055Z,5.90
2022-11-04T12:38:08.297Z,5.85
2022-11-04T12:41:27.640Z,5.43
2022-11-04T12:44:05.238Z,5.80
2022-11-04T12:46:54.233Z,5.03
2022-11-04T12:49:37.370Z,4.50
2022-11-04T12:52:15.585Z,3.92
2022-11-04T12:55:26.329Z,3.08
2022-11-04T12:58:06.528Z,0.90
2022-11-04T13:00:42.374Z,0.90
2022-11-04T13:03:30.201Z,1.23
2022-11-04T13:06:13.350Z,1.15
2022-11-04T13:09:09.357Z,0.70
2022-11-04T13:11:56.281Z,0.82
2022-11-04T13:14:30.314Z,0.80
2022-11-04T13:17:12.537Z,1.00
2022-11-04T13:19:52.906Z,1.13
2022-11-04T13:22:38.411Z,1.02
2022-11-04T13:25:07.415Z,1.00
2022-11-04T13:27:38.054Z,0.98
2022-11-04T13:30:30.376Z,0.80
2022-11-04T13:33:27.699Z,1.02
2022-11-04T13:36:46.326Z,0.80
2022-11-04T13:39:29.462Z,0.93
2022-11-04T13:42:36.471Z,1.35
2022-11-04T13:45:14.101Z,1.30
2022-11-04T13:48:05.302Z,0.88
2022-11-04T13:50:47.382Z,1.00
2022-11-04T13:53:20.444Z,0.65
2022-11-04T13:55:50.930Z,0.90
2022-11-04T13:58:31.520Z,0.85
2022-11-04T14:01:20.855Z,0.70
2022-11-04T14:03:59.449Z,0.80
2022-11-04T14:07:01.653Z,0.93
2022-11-04T14:09:50.390Z,0.95
2022-11-04T14:12:25.758Z,0.90
2022-11-04T14:15:01.493Z,1.00
2022-11-04T14:17:34.374Z,0.70
2022-11-04T14:20:29.385Z,1.00
2022-11-04T14:22:58.601Z,0.60
2022-11-04T14:25:40.676Z,0.80
2022-11-04T14:28:10.701Z,0.55
2022-11-04T14:30:56.405Z,0.70
2022-11-04T14:33:38.135Z,0.70
2022-11-04T14:36:23.573Z,0.88
2022-11-04T14:38:56.399Z,0.50
2022-11-04T14:41:46.427Z,0.40
2022-11-04T14:44:19.392Z,0.75
2022-11-04T14:46:50.617Z,1.15
2022-11-04T14:49:32.529Z,1.85
2022-11-04T14:52:08.513Z,1.70
2022-11-04T14:54:37.240Z,1.60
2022-11-04T14:57:28.504Z,1.45
2022-11-04T14:59:55.405Z,1.33
2022-11-04T15:02:37.483Z,1.08
2022-11-04T15:05:05.022Z,1.00
2022-11-04T15:07:40.465Z,1.00
2022-11-04T15:10:24.690Z,1.33
2022-11-04T15:13:01.497Z,1.70
2022-11-04T15:15:38.984Z,1.50
2022-11-04T15:18:14.486Z,1.75
2022-11-04T15:21:03.495Z,1.85
2022-11-04T15:23:42.930Z,1.77
2022-11-04T15:26:36.470Z,1.55
2022-11-04T15:29:09.697Z,1.48
2022-11-04T15:31:57.503Z,1.60
2022-11-04T15:34:26.819Z,1.23
2022-11-04T15:37:06.517Z,1.00
2022-11-04T15:39:53.680Z,1.30
2022-11-04T15:42:36.923Z,1.50
2022-11-04T15:45:28.717Z,2.90
2022-11-04T15:48:22.580Z,2.60
2022-11-04T15:51:30.646Z,2.00
2022-11-04T15:54:05.338Z,2.10
2022-11-04T15:56:57.534Z,1.70
2022-11-04T15:59:33.633Z,1.65
2022-11-04T16:02:21.583Z,1.55
2022-11-04T16:05:19.929Z,1.48
2022-11-04T16:07:55.549Z,1.13
2022-11-04T16:10:27.801Z,1.20
2022-11-04T16:13:28.535Z,1.67
2022-11-04T16:16:09.015Z,1.30
2022-11-04T16:18:50.601Z,1.00
2022-11-04T16:21:31.821Z,1.13
2022-11-04T16:24:10.544Z,1.13
2022-11-04T16:26:47.604Z,1.23
2022-11-04T16:29:31.562Z,1.20
2022-11-04T16:32:35.623Z,0.95
2022-11-04T16:35:13.475Z,1.25
2022-11-04T16:37:46.582Z,1.00
2022-11-04T16:40:21.596Z,1.05
2022-11-04T16:42:50.405Z,1.10
2022-11-04T16:45:37.599Z,1.10
2022-11-04T16:48:11.552Z,1.10
2022-11-04T16:50:38.350Z,1.38
2022-11-04T16:53:12.061Z,1.13
2022-11-04T16:55:44.544Z,1.95
2022-11-04T16:58:24.744Z,1.73
2022-11-04T17:00:51.630Z,2.08
2022-11-04T17:03:23.723Z,2.28
2022-11-04T17:06:06.615Z,1.95
2022-11-04T17:08:33.496Z,2.72
2022-11-04T17:11:00.359Z,2.10
2022-11-04T17:13:36.509Z,2.45
2022-11-04T17:16:07.561Z,2.60
2022-11-04T17:18:42.655Z,3.20
2022-11-04T17:21:16.958Z,2.80
2022-11-04T17:23:50.663Z,3.17
2022-11-04T17:26:23.672Z,3.05
2022-11-04T17:28:55.862Z,3.63
2022-11-04T17:31:29.683Z,3.38
2022-11-04T17:33:56.531Z,3.00
2022-11-04T17:36:24.121Z,2.85
2022-11-04T17:38:57.688Z,2.70
2022-11-04T17:41:50.676Z,2.38
2022-11-04T17:44:25.717Z,2.40
2022-11-04T17:46:52.517Z,2.97
2022-11-04T17:49:31.696Z,2.97
2022-11-04T17:52:07.689Z,2.78
2022-11-04T17:54:35.091Z,3.08
2022-11-04T17:57:14.714Z,3.35
2022-11-04T17:59:43.234Z,2.53
2022-11-04T18:02:18.827Z,2.55
2022-11-04T18:04:52.735Z,3.15
2022-11-04T18:07:25.721Z,2.95
2022-11-04T18:09:52.632Z,3.53
2022-11-04T18:12:44.795Z,3.70
2022-11-04T18:15:13.225Z,3.55
2022-11-04T18:17:51.711Z,5.28
2022-11-04T18:20:18.736Z,6.22
2022-11-04T18:23:00.738Z,5.55
2022-11-04T18:25:33.758Z,7.65
2022-11-04T18:28:00.508Z,6.82
2022-11-04T18:30:35.741Z,6.15
2022-11-04T18:33:02.530Z,6.03
2022-11-04T18:35:35.740Z,5.95
2022-11-04T18:38:12.769Z,5.97
2022-11-04T18:40:45.750Z,5.18
2022-11-04T18:43:13.747Z,4.90
2022-11-04T18:45:47.758Z,4.30
2022-11-04T18:48:16.392Z,4.90
2022-11-04T18:50:49.773Z,4.85
2022-11-04T18:53:22.790Z,4.70
2022-11-04T18:55:58.779Z,4.85
2022-11-04T18:58:31.786Z,4.70
2022-11-04T19:01:04.912Z,5.57
2022-11-04T19:03:34.499Z,7.38
2022-11-04T19:06:12.799Z,7.60
2022-11-04T19:08:45.351Z,7.30
2022-11-04T19:11:23.887Z,6.63
2022-11-04T19:14:08.058Z,7.97
2022-11-04T19:16:36.186Z,7.78
2022-11-04T19:19:11.859Z,9.00
2022-11-04T19:21:39.256Z,8.60
2022-11-04T19:24:14.847Z,7.82
2022-11-04T19:26:47.946Z,7.80
2022-11-04T19:29:20.849Z,7.55
2022-11-04T19:31:54.818Z,7.20
2022-11-04T19:34:22.113Z,6.93
2022-11-04T19:36:55.864Z,6.85
2022-11-04T19:39:22.602Z,7.78
2022-11-04T19:42:14.941Z,7.60
2022-11-04T19:44:41.914Z,10.15
2022-11-04T19:47:15.956Z,10.82
2022-11-04T19:49:43.051Z,9.68
2022-11-04T19:52:16.950Z,9.98
2022-11-04T19:54:43.749Z,8.32
2022-11-04T19:57:19.105Z,11.23
2022-11-04T19:59:52.907Z,9.88
2022-11-04T20:02:27.066Z,9.95
2022-11-04T20:05:00.975Z,9.40
2022-11-04T20:07:33.751Z,8.73
2022-11-04T20:10:08.004Z,8.02
2022-11-04T20:12:56.813Z,7.15
2022-11-04T20:15:31.952Z,6.55
2022-11-04T20:18:07.103Z,6.78
2022-11-04T20:20:35.194Z,6.18
2022-11-04T20:23:09.030Z,6.63
2022-11-04T20:25:41.935Z,7.15
2022-11-04T20:28:16.076Z,11.77
2022-11-04T20:30:43.040Z,12.07
2022-11-04T20:33:16.967Z,13.02
2022-11-04T20:35:49.986Z,13.75
2022-11-04T20:38:23.965Z,14.02
2022-11-04T20:40:50.825Z,11.95
2022-11-04T20:43:29.071Z,11.07
2022-11-04T20:45:56.105Z,10.93
2022-11-04T20:48:36.035Z,9.80
2022-11-04T20:51:07.254Z,8.55
2022-11-04T20:56:11.276Z,7.15
2022-11-04T20:58:48.770Z,6.93
2022-11-04T21:01:26.069Z,6.43
2022-11-04T21:04:06.982Z,6.35
2022-11-04T21:06:37.664Z,6.00
2022-11-04T21:09:13.019Z,5.53
2022-11-04T21:11:47.007Z,5.18
2022-11-04T21:14:16.211Z,5.07
2022-11-04T21:16:49.990Z,5.07
2022-11-04T21:19:24.012Z,5.00
2022-11-04T21:21:57.043Z,5.30
2022-11-04T21:24:24.579Z,5.88
2022-11-04T21:26:51.450Z,5.68
2022-11-04T21:29:25.980Z,5.82
2022-11-04T21:31:57.687Z,9.48
2022-11-04T21:34:24.646Z,11.30
2022-11-04T21:36:59.037Z,8.85
2022-11-04T21:39:33.013Z,6.10
2022-11-04T21:42:07.023Z,4.65
2022-11-04T21:44:40.096Z,3.20
2022-11-04T21:47:28.017Z,3.08
2022-11-04T21:50:01.200Z,2.95
2022-11-04T21:52:35.059Z,2.17
2022-11-04T21:55:01.837Z,3.03
2022-11-04T21:57:28.641Z,3.50
2022-11-04T22:00:02.096Z,2.53
2022-11-04T22:02:42.467Z,2.20
2022-11-04T22:05:17.069Z,2.92
2022-11-04T22:08:02.298Z,2.67
2022-11-04T22:10:36.073Z,2.08
2022-11-04T22:13:02.834Z,1.83
2022-11-04T22:15:56.115Z,1.63
2022-11-04T22:18:22.895Z,1.70
2022-11-04T22:20:56.181Z,1.40
2022-11-04T22:23:23.903Z,1.55
2022-11-04T22:25:58.129Z,1.50
2022-11-04T22:28:25.518Z,1.42
2022-11-04T22:30:59.092Z,1.70
2022-11-04T22:33:31.376Z,1.50
2022-11-04T22:36:05.165Z,1.90
2022-11-04T22:38:33.531Z,1.50
2022-11-04T22:41:08.154Z,1.50
2022-11-04T22:43:41.134Z,1.52
2022-11-04T22:46:25.893Z,1.65
2022-11-04T22:48:59.143Z,2.78
2022-11-04T22:51:28.292Z,3.30
2022-11-04T22:54:07.843Z,2.30
2022-11-04T22:56:35.113Z,2.80
2022-11-04T22:59:02.032Z,2.60
2022-11-04T23:01:38.331Z,2.45
2022-11-04T23:04:05.897Z,2.20
2022-11-04T23:06:43.179Z,1.85
2022-11-04T23:09:12.717Z,2.00
2022-11-04T23:12:05.232Z,2.05
2022-11-04T23:15:01.213Z,2.15
2022-11-04T23:17:53.130Z,2.50
2022-11-04T23:20:28.178Z,2.40
2022-11-04T23:23:34.202Z,2.10
2022-11-04T23:26:01.005Z,2.00
2022-11-04T23:29:07.186Z,2.00
2022-11-04T23:31:33.966Z,2.00
2022-11-04T23:34:26.218Z,1.95
2022-11-04T23:37:18.215Z,1.75
2022-11-04T23:39:54.183Z,1.73
2022-11-04T23:42:32.222Z,2.20
2022-11-04T23:45:24.440Z,1.98
2022-11-04T23:48:21.217Z,1.67
2022-11-04T23:51:06.359Z,1.83
2022-11-04T23:53:59.233Z,1.90
2022-11-04T23:56:52.219Z,2.33
2022-11-04T23:59:37.675Z,2.28
